Time;durP1;ratioP1;P1;durP2;ratioP2;P2;SDS_P1;SDS_P2;PMS_P1;PMS_P2;Temp;Humidity;BMP_temperature;BMP_pressure;BME280_temperature;BME280_humidity;BME280_pressure;Samples;Min_cycle;Max_cycle;Signal;HPM_P1;HPM_P2
2022/06/30 00:01:46;;;;;;;3.90;3.60;;;;;;;26.24;53.07;99292.53;4975355;28;20199;-68
2022/06/30 00:04:13;;;;;;;4.10;3.80;;;;;;;26.20;53.46;99287.97;4975038;28;20632;-68
2022/06/30 00:06:40;;;;;;;5.00;4.00;;;;;;;26.25;53.65;99290.63;4973232;28;20630;-68
2022/06/30 00:09:07;;;;;;;4.37;3.97;;;;;;;26.26;53.36;99287.59;4974106;28;20633;-71
2022/06/30 00:11:34;;;;;;;5.17;3.90;;;;;;;26.31;53.46;99279.31;4973718;28;20195;-70
2022/06/30 00:14:02;;;;;;;4.13;3.93;;;;;;;26.33;52.93;99281.75;4974812;28;20637;-69
2022/06/30 00:16:29;;;;;;;3.90;3.60;;;;;;;26.27;53.74;99293.84;4975180;28;20270;-69
2022/06/30 00:18:56;;;;;;;4.80;4.40;;;;;;;26.20;54.34;99288.81;4975520;28;20202;-68
2022/06/30 00:21:22;;;;;;;4.83;4.30;;;;;;;26.29;54.03;99286.19;4975068;28;20203;-69
2022/06/30 00:23:49;;;;;;;5.10;4.53;;;;;;;26.22;53.99;99289.31;4975728;28;20191;-68
2022/06/30 00:26:16;;;;;;;4.87;4.47;;;;;;;26.24;54.27;99289.00;4975179;28;20196;-68
2022/06/30 00:28:43;;;;;;;4.67;4.10;;;;;;;26.26;55.13;99284.06;4974644;28;20278;-69
2022/06/30 00:31:11;;;;;;;4.87;4.57;;;;;;;26.28;54.66;99290.00;4975057;28;20199;-68
2022/06/30 00:33:37;;;;;;;4.07;3.87;;;;;;;26.30;54.99;99287.81;4975007;28;20199;-68
2022/06/30 00:36:05;;;;;;;5.20;4.67;;;;;;;26.20;55.55;99282.53;4974349;28;20199;-69
2022/06/30 00:38:31;;;;;;;5.73;4.77;;;;;;;26.12;55.55;99289.50;4974285;28;20562;-68
2022/06/30 00:40:58;;;;;;;11.33;4.50;;;;;;;26.02;56.02;99291.63;4974888;28;20192;-68
2022/06/30 00:43:25;;;;;;;5.30;4.57;;;;;;;26.00;56.94;99302.03;4974298;28;20206;-68
2022/06/30 00:45:52;;;;;;;5.37;4.87;;;;;;;25.98;56.57;99293.31;4974790;28;20525;-69
2022/06/30 00:48:20;;;;;;;8.73;4.67;;;;;;;26.03;56.35;99291.31;4974919;28;20223;-68
2022/06/30 00:50:47;;;;;;;4.97;4.50;;;;;;;25.98;56.76;99290.59;4974046;28;20231;-68
2022/06/30 00:53:14;;;;;;;6.37;4.13;;;;;;;25.95;57.25;99285.75;4974107;28;20282;-68
2022/06/30 00:55:44;;;;;;;4.73;4.33;;;;;;;25.90;57.44;99283.09;4974299;28;20200;-68
2022/06/30 00:58:11;;;;;;;4.60;4.30;;;;;;;25.94;56.98;99281.44;4973799;28;20616;-68
2022/06/30 01:00:41;;;;;;;5.50;5.00;;;;;;;25.82;58.16;99281.06;4974078;28;20230;-68
2022/06/30 01:03:09;;;;;;;5.37;4.20;;;;;;;25.67;58.44;99275.91;4973875;28;20719;-68
2022/06/30 01:05:38;;;;;;;4.63;4.43;;;;;;;25.47;59.08;99268.13;4974163;28;20195;-68
2022/06/30 01:08:06;;;;;;;5.10;4.57;;;;;;;25.41;59.25;99275.53;4973658;28;20711;-68
2022/06/30 01:13:17;;;;;;;5.13;4.57;;;;;;;25.40;59.18;99273.13;4974465;28;20183;-68
2022/06/30 01:15:43;;;;;;;9.77;5.10;;;;;;;25.35;59.50;99270.50;4973852;28;20192;-69
2022/06/30 01:18:10;;;;;;;5.17;4.60;;;;;;;25.17;60.30;99274.81;4974174;28;20203;-68
2022/06/30 01:20:39;;;;;;;5.30;4.80;;;;;;;25.13;60.30;99278.41;4974470;28;20202;-68
2022/06/30 01:23:08;;;;;;;21.57;4.97;;;;;;;25.20;60.56;99278.84;4973920;28;20199;-68
2022/06/30 01:25:35;;;;;;;4.50;4.10;;;;;;;25.38;59.67;99278.03;4973573;28;20207;-68
2022/06/30 01:28:03;;;;;;;7.37;4.60;;;;;;;25.49;59.19;99282.22;4973494;28;20765;-68
2022/06/30 01:30:30;;;;;;;5.53;4.77;;;;;;;25.52;58.97;99276.19;4974019;28;20195;-68
2022/06/30 01:32:56;;;;;;;4.53;4.10;;;;;;;25.46;59.01;99277.34;4973707;28;20226;-68
2022/06/30 01:35:23;;;;;;;6.67;4.40;;;;;;;25.41;59.22;99263.84;4974465;28;20198;-68
2022/06/30 01:37:52;;;;;;;9.17;5.17;;;;;;;25.40;59.43;99273.13;4974264;28;20207;-68
2022/06/30 01:40:21;;;;;;;4.93;4.63;;;;;;;25.28;60.45;99287.19;4973725;28;20199;-69
2022/06/30 01:42:49;;;;;;;5.53;4.63;;;;;;;25.25;59.85;99287.75;4974388;28;20246;-69
2022/06/30 01:45:16;;;;;;;6.00;4.77;;;;;;;25.23;60.70;99275.56;4973264;28;20670;-69
2022/06/30 01:47:43;;;;;;;4.70;4.30;;;;;;;25.38;60.38;99275.31;4974216;28;20223;-69
2022/06/30 01:50:12;;;;;;;5.23;4.70;;;;;;;25.48;59.82;99278.66;4973603;28;20282;-68
2022/06/30 01:52:39;;;;;;;10.87;4.47;;;;;;;25.54;59.65;99276.69;4973229;28;20667;-68
2022/06/30 01:55:07;;;;;;;5.03;4.73;;;;;;;25.62;58.40;99276.00;4973475;28;20196;-69
2022/06/30 01:57:35;;;;;;;5.47;4.20;;;;;;;25.46;59.17;99277.34;4973277;28;20195;-68
2022/06/30 02:00:02;;;;;;;12.33;4.77;;;;;;;25.36;59.85;99280.25;4973314;28;20191;-68
2022/06/30 02:02:28;;;;;;;10.27;4.97;;;;;;;25.48;59.62;99275.94;4972912;28;20195;-68
2022/06/30 02:04:55;;;;;;;6.10;4.90;;;;;;;25.52;59.61;99276.97;4973398;28;20199;-69
2022/06/30 02:07:23;;;;;;;5.50;4.53;;;;;;;25.60;59.49;99278.22;4973813;28;20195;-69
2022/06/30 02:09:50;;;;;;;4.90;4.47;;;;;;;25.67;58.67;99273.16;4972984;28;20195;-68
2022/06/30 02:15:05;;;;;;;6.37;4.87;;;;;;;25.70;58.51;99273.41;4975369;28;20592;-68
2022/06/30 02:17:32;;;;;;;4.93;4.60;;;;;;;25.63;58.70;99272.19;4977008;28;20195;-68
2022/06/30 02:19:58;;;;;;;4.63;4.20;;;;;;;25.63;59.13;99272.97;4977296;28;20203;-68
2022/06/30 02:22:25;;;;;;;7.30;4.70;;;;;;;25.67;59.40;99263.09;4976845;28;20214;-68
2022/06/30 02:24:52;;;;;;;4.80;4.30;;;;;;;25.69;58.94;99270.97;4977080;28;20195;-68
2022/06/30 02:27:20;;;;;;;6.87;4.77;;;;;;;25.69;58.33;99271.78;4977053;28;20191;-69
2022/06/30 02:29:47;;;;;;;4.97;4.50;;;;;;;25.58;58.87;99264.09;4976743;28;20205;-68
2022/06/30 02:32:15;;;;;;;5.47;4.40;;;;;;;25.53;59.22;99267.72;4976951;28;20278;-68
2022/06/30 02:34:43;;;;;;;4.80;3.73;;;;;;;25.54;59.16;99273.94;4976852;28;20191;-69
2022/06/30 02:37:10;;;;;;;5.23;4.37;;;;;;;25.57;59.72;99267.91;4976642;28;20199;-68
2022/06/30 02:39:36;;;;;;;9.83;4.83;;;;;;;25.59;59.54;99273.88;4976489;28;20250;-68
2022/06/30 02:42:03;;;;;;;7.03;4.30;;;;;;;25.63;59.25;99272.19;4976710;28;20278;-68
2022/06/30 02:44:30;;;;;;;4.93;4.37;;;;;;;25.62;59.30;99267.81;4976503;28;20196;-68
2022/06/30 02:46:57;;;;;;;5.20;4.70;;;;;;;25.69;58.64;99273.69;4976376;28;20196;-68
2022/06/30 02:49:25;;;;;;;8.93;5.13;;;;;;;25.56;58.95;99282.66;4976586;28;20223;-69
2022/06/30 02:51:53;;;;;;;5.03;4.37;;;;;;;25.35;59.33;99276.72;4976655;28;20262;-68
2022/06/30 02:54:20;;;;;;;6.20;5.03;;;;;;;25.21;59.88;99292.16;4976248;28;20567;-69
2022/06/30 02:56:47;;;;;;;6.90;4.20;;;;;;;25.16;60.64;99286.81;4976271;28;20199;-69
2022/06/30 02:59:14;;;;;;;4.40;4.10;;;;;;;25.20;60.30;99289.72;4977324;28;20199;-69
2022/06/30 03:01:41;;;;;;;7.73;4.93;;;;;;;25.25;59.81;99297.81;4976169;28;20664;-69
2022/06/30 03:04:08;;;;;;;6.20;4.90;;;;;;;25.30;59.79;99300.47;4976454;28;20207;-69
2022/06/30 03:06:36;;;;;;;4.50;4.20;;;;;;;25.35;59.46;99301.19;4976402;28;20199;-68
2022/06/30 03:09:03;;;;;;;5.10;4.60;;;;;;;25.28;60.38;99297.25;4976282;28;20285;-69
2022/06/30 03:11:30;;;;;;;5.30;4.90;;;;;;;25.47;59.70;99295.31;4976321;28;20198;-69
2022/06/30 03:13:57;;;;;;;13.00;5.07;;;;;;;25.66;59.41;99304.22;4976190;28;20231;-69
2022/06/30 03:16:24;;;;;;;6.03;5.53;;;;;;;25.82;58.09;99302.84;4976252;28;20250;-69
2022/06/30 03:18:52;;;;;;;6.10;5.17;;;;;;;26.00;56.94;99304.75;4976164;28;20195;-68
2022/06/30 03:21:20;;;;;;;6.00;5.37;;;;;;;26.00;57.57;99310.97;4976154;28;20195;-68
2022/06/30 03:23:48;;;;;;;5.10;4.67;;;;;;;25.97;57.64;99305.34;4976248;28;20195;-69
2022/06/30 03:26:16;;;;;;;9.07;4.90;;;;;;;25.88;58.19;99312.56;4974517;28;20203;-69
2022/06/30 03:28:43;;;;;;;14.97;5.73;;;;;;;26.03;57.79;99310.38;4975670;28;20318;-69
2022/06/30 03:31:09;;;;;;;5.33;4.93;;;;;;;26.08;57.44;99317.63;4975613;28;20738;-69
2022/06/30 03:33:37;;;;;;;5.00;4.57;;;;;;;26.13;57.48;99312.91;4976150;28;20207;-68
2022/06/30 03:36:04;;;;;;;8.73;4.80;;;;;;;26.19;57.43;99314.44;4975521;28;20196;-68
2022/06/30 03:38:31;;;;;;;7.07;5.53;;;;;;;26.28;56.89;99317.25;4975668;28;20261;-68
2022/06/30 03:40:59;;;;;;;7.03;5.60;;;;;;;26.26;57.77;99314.84;4975431;28;20663;-67
2022/06/30 03:43:26;;;;;;;5.93;5.43;;;;;;;26.31;57.72;99317.47;4975332;28;20628;-68
2022/06/30 03:45:53;;;;;;;5.80;5.30;;;;;;;26.48;57.25;99317.66;4975372;28;20192;-68
2022/06/30 03:48:19;;;;;;;7.57;5.20;;;;;;;26.65;56.58;99325.22;4975525;28;20323;-68
2022/06/30 03:50:46;;;;;;;9.03;4.83;;;;;;;26.76;56.18;99324.72;4975586;28;20195;-67
2022/06/30 03:53:13;;;;;;;11.70;5.53;;;;;;;26.83;55.46;99325.09;4975197;28;20730;-68
2022/06/30 03:55:40;;;;;;;8.07;6.30;;;;;;;26.85;55.24;99330.25;4975083;28;20198;-68
2022/06/30 03:58:09;;;;;;;6.47;5.43;;;;;;;26.83;55.39;99333.28;4975037;28;20695;-68
2022/06/30 04:00:36;;;;;;;7.57;5.83;;;;;;;26.83;55.23;99329.75;4975937;28;20395;-68
2022/06/30 04:03:03;;;;;;;10.67;5.80;;;;;;;26.90;55.16;99336.41;4975411;28;20204;-68
2022/06/30 04:05:30;;;;;;;8.70;5.23;;;;;;;27.40;53.59;99332.53;4976147;28;20618;-68
2022/06/30 04:07:57;;;;;;;5.70;5.20;;;;;;;28.41;50.90;99342.50;4975168;28;20200;-68
2022/06/30 04:10:24;;;;;;;11.40;5.33;;;;;;;29.52;47.47;99330.94;4974846;28;20273;-68
2022/06/30 04:12:51;;;;;;;8.50;5.27;;;;;;;30.57;43.88;99336.31;4975822;28;20203;-67
2022/06/30 04:15:19;;;;;;;9.17;4.80;;;;;;;31.29;41.07;99350.59;4975200;28;20691;-68
2022/06/30 04:17:45;;;;;;;6.03;4.47;;;;;;;31.72;39.59;99350.22;4974813;28;20701;-68
2022/06/30 04:20:16;;;;;;;5.10;4.70;;;;;;;32.05;38.84;99353.78;4975066;28;20243;-68
2022/06/30 04:22:45;;;;;;;8.70;5.07;;;;;;;32.54;38.27;99352.72;4974718;28;20653;-68
2022/06/30 04:25:11;;;;;;;5.57;4.90;;;;;;;32.94;36.84;99354.44;4974892;28;20278;-68
2022/06/30 04:27:42;;;;;;;4.90;4.60;;;;;;;33.39;35.57;99367.25;4974667;28;20195;-68
2022/06/30 04:30:10;;;;;;;9.67;4.80;;;;;;;34.41;33.99;99360.66;4974491;28;20285;-68
2022/06/30 04:32:37;;;;;;;5.00;4.70;;;;;;;35.06;32.29;99361.84;4974815;28;20235;-68
2022/06/30 04:35:05;;;;;;;8.27;4.80;;;;;;;35.92;31.13;99367.69;4975117;28;20199;-68
2022/06/30 04:37:32;;;;;;;6.05;4.03;;;;;;;36.45;29.58;99368.66;4974486;28;20199;-68
2022/06/30 04:42:43;;;;;;;6.78;4.45;;;;;;;36.61;29.17;99377.63;4974385;28;20183;-68
2022/06/30 04:45:10;;;;;;;8.48;4.78;;;;;;;36.49;29.30;99380.59;4974611;28;20258;-68
2022/06/30 04:47:39;;;;;;;12.23;4.80;;;;;;;36.63;29.42;99378.84;4974503;28;20263;-68
2022/06/30 04:50:07;;;;;;;13.15;5.50;;;;;;;36.81;29.52;99376.41;4974277;28;20288;-68
2022/06/30 04:52:34;;;;;;;8.35;5.30;;;;;;;36.28;30.35;99381.03;4974097;28;20663;-69
2022/06/30 04:55:01;;;;;;;4.15;3.78;;;;;;;36.07;29.84;99379.81;4974275;28;20624;-69
2022/06/30 04:57:28;;;;;;;5.05;4.55;;;;;;;36.05;29.52;99391.25;4974393;28;20199;-68
2022/06/30 04:59:55;;;;;;;4.32;3.47;;;;;;;36.71;29.15;99383.38;4974604;28;20644;-68
2022/06/30 05:02:21;;;;;;;6.28;4.55;;;;;;;36.89;28.67;99375.34;4974189;28;20254;-67
2022/06/30 05:04:49;;;;;;;4.18;3.97;;;;;;;36.71;28.80;99377.03;4974468;28;20199;-67
2022/06/30 05:07:17;;;;;;;4.15;3.80;;;;;;;36.77;28.53;99376.34;4973927;28;20203;-67
2022/06/30 05:09:44;;;;;;;4.35;3.78;;;;;;;36.65;28.88;99378.50;4974249;28;20671;-67
2022/06/30 05:12:11;;;;;;;6.72;4.18;;;;;;;36.80;28.40;99372.84;4973846;28;20678;-67
2022/06/30 05:14:37;;;;;;;4.93;4.43;;;;;;;36.65;28.37;99373.75;4973819;28;20317;-66
2022/06/30 05:17:05;;;;;;;10.68;4.50;;;;;;;36.98;28.23;99375.88;4974006;28;20224;-65
2022/06/30 05:19:32;;;;;;;11.48;4.38;;;;;;;37.23;27.77;99374.28;4973689;28;20202;-66
2022/06/30 05:22:00;;;;;;;10.07;3.90;;;;;;;37.40;27.34;99382.06;4974020;28;20195;-68
2022/06/30 05:27:13;;;;;;;12.15;4.35;;;;;;;37.67;27.25;99389.16;4973413;28;20234;-67
2022/06/30 05:29:40;;;;;;;10.25;4.60;;;;;;;37.77;27.40;99396.00;4973355;28;20223;-67
2022/06/30 05:32:08;;;;;;;6.55;4.20;;;;;;;37.87;27.49;99385.03;4973660;28;20203;-67
2022/06/30 05:34:35;;;;;;;7.57;4.15;;;;;;;37.77;27.79;99379.38;4973094;28;20258;-67
2022/06/30 05:37:04;;;;;;;6.00;4.05;;;;;;;37.83;27.97;99386.97;4973362;28;20199;-67
2022/06/30 05:39:32;;;;;;;3.92;3.42;;;;;;;37.85;28.01;99387.41;4973687;28;20199;-66
2022/06/30 05:42:00;;;;;;;6.88;4.30;;;;;;;38.05;27.58;99386.03;4973310;28;20206;-66
2022/06/30 05:44:27;;;;;;;5.65;4.30;;;;;;;38.30;27.09;99394.63;4973549;28;20291;-66
2022/06/30 05:46:55;;;;;;;4.22;3.92;;;;;;;38.39;26.69;99395.91;4973804;28;20279;-67
2022/06/30 05:49:21;;;;;;;4.40;3.97;;;;;;;38.50;27.29;99396.81;4972676;28;20366;-65
2022/06/30 05:51:48;;;;;;;5.20;4.07;;;;;;;38.38;26.61;99394.34;4973398;28;20196;-67
2022/06/30 05:54:16;;;;;;;10.65;3.85;;;;;;;37.73;27.22;99395.97;4973121;28;20195;-67
2022/06/30 05:56:43;;;;;;;3.90;3.50;;;;;;;37.46;27.91;99388.84;4973390;28;20629;-66
2022/06/30 05:59:10;;;;;;;9.25;4.10;;;;;;;37.61;27.88;99396.22;4973028;28;20264;-66
2022/06/30 06:01:37;;;;;;;9.68;3.78;;;;;;;37.72;27.60;99404.66;4973440;28;20659;-68
2022/06/30 06:04:04;;;;;;;5.70;3.92;;;;;;;37.63;28.17;99401.41;4973381;28;20199;-66
2022/06/30 06:06:30;;;;;;;7.95;4.05;;;;;;;37.72;27.69;99393.56;4973381;28;20291;-67
2022/06/30 06:08:57;;;;;;;4.43;4.00;;;;;;;37.85;27.96;99403.22;4973134;28;20253;-66
2022/06/30 06:11:25;;;;;;;7.07;4.38;;;;;;;37.87;28.00;99396.13;4972960;28;20203;-66
2022/06/30 06:13:52;;;;;;;4.45;4.10;;;;;;;37.51;28.28;99399.59;4973430;28;20231;-67
2022/06/30 06:16:19;;;;;;;5.28;3.88;;;;;;;37.45;28.25;99398.34;4973098;28;20621;-67
2022/06/30 06:18:46;;;;;;;11.25;4.22;;;;;;;37.63;28.38;99402.16;4972814;28;20199;-68
2022/06/30 06:21:12;;;;;;;10.90;4.28;;;;;;;37.96;28.21;99402.16;4972960;28;20191;-67
2022/06/30 06:23:40;;;;;;;10.35;4.32;;;;;;;38.07;28.03;99394.00;4973318;28;20203;-66
2022/06/30 06:26:07;;;;;;;6.20;3.72;;;;;;;37.98;27.83;99396.25;4973294;28;20257;-67
2022/06/30 06:31:19;;;;;;;7.55;3.75;;;;;;;38.05;28.14;99390.81;4973582;28;20242;-67
2022/06/30 06:33:47;;;;;;;5.68;3.50;;;;;;;38.31;27.66;99393.44;4972647;28;20258;-68
2022/06/30 06:36:14;;;;;;;35.67;5.78;;;;;;;38.42;27.37;99403.50;4973103;28;20195;-68
2022/06/30 06:38:41;;;;;;;9.30;4.40;;;;;;;38.46;27.20;99407.06;4972830;28;20195;-68
2022/06/30 06:41:08;;;;;;;11.18;4.10;;;;;;;38.49;26.92;99400.78;4973291;28;20199;-68
2022/06/30 06:43:36;;;;;;;9.20;3.72;;;;;;;38.39;27.00;99392.34;4973070;28;20199;-68
2022/06/30 06:46:03;;;;;;;5.88;4.32;;;;;;;38.42;26.76;99411.81;4972684;28;20261;-68
2022/06/30 06:48:30;;;;;;;5.82;3.90;;;;;;;38.32;26.31;99406.94;4972087;28;20199;-69
2022/06/30 06:50:56;;;;;;;6.85;3.70;;;;;;;38.78;25.68;99405.41;4972630;28;20223;-68
2022/06/30 06:53:23;;;;;;;5.72;3.90;;;;;;;38.72;25.96;99404.19;4972397;28;20548;-68
2022/06/30 06:55:50;;;;;;;6.07;4.13;;;;;;;38.59;25.97;99397.31;4972404;28;20663;-68
2022/06/30 06:58:17;;;;;;;6.68;4.10;;;;;;;38.58;26.21;99392.16;4972589;28;20242;-68
2022/06/30 07:00:45;;;;;;;5.07;3.65;;;;;;;38.59;26.47;99393.75;4973377;28;20754;-68
2022/06/30 07:03:12;;;;;;;7.97;4.03;;;;;;;38.51;25.88;99398.44;4976287;28;20551;-67
2022/06/30 07:05:39;;;;;;;5.10;4.07;;;;;;;38.52;25.80;99394.47;4975962;28;20203;-68
2022/06/30 07:08:05;;;;;;;4.45;4.05;;;;;;;38.39;26.36;99393.16;4976117;28;20199;-68
2022/06/30 07:10:32;;;;;;;6.57;3.60;;;;;;;38.24;26.19;99387.81;4976826;28;20229;-68
2022/06/30 07:12:59;;;;;;;7.75;4.60;;;;;;;38.53;25.60;99386.97;4976309;28;20273;-68
2022/06/30 07:15:26;;;;;;;8.80;4.03;;;;;;;38.48;26.18;99388.09;4976941;28;20298;-68
2022/06/30 07:17:54;;;;;;;7.22;3.97;;;;;;;38.86;25.51;99386.81;4976235;28;20199;-68
2022/06/30 07:20:21;;;;;;;7.85;3.67;;;;;;;38.89;25.05;99386.03;4975901;28;20252;-68
2022/06/30 07:22:47;;;;;;;11.18;4.00;;;;;;;38.96;25.22;99370.25;4976640;28;20199;-68
2022/06/30 07:25:14;;;;;;;4.18;3.45;;;;;;;39.13;24.77;99375.13;4975812;28;20191;-68
2022/06/30 07:27:41;;;;;;;11.88;3.90;;;;;;;39.05;24.95;99373.47;4975729;28;20191;-68
2022/06/30 07:30:09;;;;;;;5.07;4.15;;;;;;;39.10;25.00;99370.31;4975927;28;20282;-66
2022/06/30 07:32:36;;;;;;;5.53;3.75;;;;;;;39.26;24.73;99372.78;4975562;28;20254;-65
2022/06/30 07:35:06;;;;;;;4.97;4.05;;;;;;;39.13;24.91;99364.00;4976645;28;20196;-66
2022/06/30 07:37:37;;;;;;;8.38;3.58;;;;;;;39.45;24.42;99372.53;4975544;28;20675;-66
2022/06/30 07:40:05;;;;;;;5.43;3.88;;;;;;;39.54;24.61;99368.22;4975560;28;20187;-66
2022/06/30 07:42:31;;;;;;;5.57;4.22;;;;;;;39.68;24.03;99368.25;4976209;28;20195;-66
2022/06/30 07:44:58;;;;;;;7.18;3.67;;;;;;;39.65;23.79;99369.06;4976392;28;20257;-66
2022/06/30 07:47:25;;;;;;;10.18;4.03;;;;;;;39.25;24.29;99360.09;4975650;28;20199;-66
2022/06/30 07:49:52;;;;;;;9.07;4.25;;;;;;;39.21;24.76;99371.19;4975266;28;20699;-67
2022/06/30 07:52:20;;;;;;;5.78;4.05;;;;;;;39.20;24.50;99372.38;4975223;28;20664;-66
2022/06/30 07:54:47;;;;;;;4.35;3.90;;;;;;;39.27;24.50;99377.97;4975506;28;20262;-66
2022/06/30 07:57:13;;;;;;;6.40;3.78;;;;;;;39.22;24.90;99370.00;4975177;28;20195;-66
2022/06/30 07:59:40;;;;;;;12.30;4.35;;;;;;;39.32;24.28;99369.25;4975135;28;20203;-67
2022/06/30 08:02:07;;;;;;;8.40;4.07;;;;;;;39.33;23.96;99367.28;4975376;28;20253;-66
2022/06/30 08:04:35;;;;;;;5.30;3.85;;;;;;;39.19;24.71;99359.66;4974968;28;20199;-66
2022/06/30 08:07:03;;;;;;;6.78;4.05;;;;;;;39.23;24.67;99368.81;4975339;28;20291;-66
2022/06/30 08:09:33;;;;;;;6.85;4.18;;;;;;;39.31;23.82;99370.44;4975764;28;20250;-67
2022/06/30 08:11:59;;;;;;;5.70;4.00;;;;;;;39.42;23.78;99371.31;4974566;28;20202;-66
2022/06/30 08:14:26;;;;;;;9.65;3.95;;;;;;;39.53;23.35;99377.75;4974849;28;20695;-66
2022/06/30 08:16:54;;;;;;;3.90;3.55;;;;;;;39.61;23.49;99364.66;4975085;28;20257;-66
2022/06/30 08:19:20;;;;;;;4.20;3.80;;;;;;;39.51;23.29;99363.41;4974764;28;20259;-66
2022/06/30 08:21:48;;;;;;;6.00;3.65;;;;;;;39.61;23.08;99368.25;4974780;28;20218;-66
2022/06/30 08:24:15;;;;;;;9.05;4.35;;;;;;;39.61;22.99;99357.13;4975361;28;20257;-67
2022/06/30 08:26:43;;;;;;;6.15;4.10;;;;;;;39.28;23.69;99371.25;4974934;28;20247;-67
2022/06/30 08:29:12;;;;;;;7.28;4.47;;;;;;;38.61;24.38;99369.16;4984276;28;20257;-66
2022/06/30 08:31:38;;;;;;;8.18;4.57;;;;;;;38.24;24.83;99360.88;4994116;28;20223;-67
2022/06/30 08:34:05;;;;;;;7.50;4.63;;;;;;;38.18;25.05;99367.97;4994167;28;20249;-68
2022/06/30 08:36:32;;;;;;;9.52;5.03;;;;;;;38.42;24.60;99363.81;4993752;28;20194;-67
2022/06/30 08:38:59;;;;;;;6.38;5.45;;;;;;;38.42;25.71;99361.84;4993632;28;20198;-67
2022/06/30 08:44:15;;;;;;;8.32;4.78;;;;;;;38.27;25.13;99364.84;4984477;28;20701;-70
2022/06/30 08:46:43;;;;;;;5.30;4.85;;;;;;;38.37;24.48;99362.16;4993879;28;20194;-71
2022/06/30 08:49:10;;;;;;;5.47;4.95;;;;;;;38.45;24.78;99360.28;4994539;28;20260;-72
2022/06/30 08:51:38;;;;;;;13.50;5.05;;;;;;;38.16;25.21;99359.19;4993955;28;20230;-72
2022/06/30 08:54:06;;;;;;;6.28;4.75;;;;;;;38.33;25.45;99350.25;4993924;28;20560;-72
2022/06/30 08:56:35;;;;;;;6.40;4.30;;;;;;;38.48;25.38;99354.78;4993200;28;20261;-72
2022/06/30 08:59:03;;;;;;;7.20;4.30;;;;;;;38.62;25.26;99354.88;4992917;28;20625;-73
2022/06/30 09:01:32;;;;;;;6.40;4.53;;;;;;;38.74;24.72;99346.22;4993776;28;20729;-72
2022/06/30 09:03:59;;;;;;;11.32;4.60;;;;;;;38.59;25.12;99343.75;4993952;28;20197;-74
2022/06/30 09:06:26;;;;;;;9.60;4.50;;;;;;;37.95;26.03;99347.88;4993372;28;20659;-69
2022/06/30 09:08:53;;;;;;;6.50;3.90;;;;;;;38.24;24.94;99337.84;4993998;28;20625;-69
2022/06/30 09:11:19;;;;;;;11.73;4.53;;;;;;;38.03;26.02;99335.69;4993077;28;20226;-69
2022/06/30 09:13:49;;;;;;;8.88;3.97;;;;;;;38.19;25.34;99347.34;4993094;28;20772;-70
2022/06/30 09:16:17;;;;;;;6.35;4.05;;;;;;;38.32;25.19;99340.31;4993082;28;20281;-69
2022/06/30 09:18:46;;;;;;;4.38;3.67;;;;;;;38.31;25.52;99343.47;4994143;28;20245;-70
2022/06/30 09:21:17;;;;;;;6.20;3.70;;;;;;;37.72;26.26;99344.44;4993034;28;20198;-69
2022/06/30 09:23:45;;;;;;;8.82;4.35;;;;;;;37.94;25.74;99340.72;4992451;28;20195;-70
2022/06/30 09:26:19;;;;;;;7.03;3.85;;;;;;;38.17;25.31;99341.38;4991528;28;20226;-70
2022/06/30 09:28:50;;;;;;;5.65;3.60;;;;;;;38.21;24.54;99350.53;4988600;28;20230;-70
2022/06/30 09:31:32;;;;;;;4.18;3.50;;;;;;;38.24;23.97;99348.97;4973626;28;20325;-71
2022/06/30 09:34:11;;;;;;;3.83;3.00;;;;;;;38.46;23.61;99334.88;4974658;28;20249;-71
2022/06/30 09:36:39;;;;;;;9.23;3.72;;;;;;;38.61;23.38;99347.72;4981965;28;20187;-70
2022/06/30 09:39:08;;;;;;;5.55;3.05;;;;;;;38.49;23.79;99344.47;4982283;28;20195;-70
2022/06/30 09:41:36;;;;;;;6.78;3.38;;;;;;;38.66;23.51;99349.38;4983633;28;20194;-70
2022/06/30 09:44:05;;;;;;;3.78;3.10;;;;;;;38.72;23.30;99347.81;4982792;28;20191;-69
2022/06/30 09:46:36;;;;;;;3.38;3.13;;;;;;;38.78;23.00;99347.06;4981185;28;20194;-69
2022/06/30 09:49:04;;;;;;;4.43;3.20;;;;;;;38.90;23.49;99346.78;4982119;28;20190;-69
2022/06/30 09:51:31;;;;;;;5.57;3.33;;;;;;;38.25;24.38;99333.91;4987391;28;20226;-69
2022/06/30 09:54:09;;;;;;;5.60;3.47;;;;;;;38.04;24.97;99334.50;4992788;28;20205;-70
2022/06/30 09:56:36;;;;;;;3.70;3.40;;;;;;;38.40;24.10;99335.63;4992516;28;20249;-70
2022/06/30 09:59:06;;;;;;;6.55;3.55;;;;;;;38.35;24.78;99331.22;4992365;28;20191;-70
2022/06/30 10:01:51;;;;;;;4.88;3.10;;;;;;;38.46;24.99;99337.66;4992533;28;20273;-70
2022/06/30 10:04:19;;;;;;;3.75;3.03;;;;;;;38.58;23.73;99337.38;4992765;28;20182;-67
2022/06/30 10:06:46;;;;;;;4.50;3.08;;;;;;;38.42;23.36;99325.75;4993356;28;20195;-68
2022/06/30 10:09:17;;;;;;;7.95;2.90;;;;;;;38.55;23.51;99332.63;4992474;28;20281;-69
2022/06/30 10:11:45;;;;;;;3.50;3.25;;;;;;;38.36;23.99;99321.72;4993163;28;20302;-69
2022/06/30 10:14:12;;;;;;;4.63;3.67;;;;;;;37.61;24.76;99324.13;4992403;28;20238;-70
2022/06/30 10:16:40;;;;;;;7.07;4.15;;;;;;;37.76;25.37;99313.97;4992527;28;20198;-66
2022/06/30 10:19:09;;;;;;;5.55;4.85;;;;;;;37.89;24.94;99316.13;4992602;28;20276;-68
2022/06/30 10:21:39;;;;;;;6.45;3.70;;;;;;;37.92;24.74;99320.88;4992248;28;20206;-69
2022/06/30 10:24:06;;;;;;;9.02;3.78;;;;;;;37.97;24.93;99317.78;4992604;28;20608;-67
2022/06/30 10:29:19;;;;;;;4.03;3.58;;;;;;;37.84;25.27;99313.66;4992351;28;20186;-69
2022/06/30 10:31:51;;;;;;;5.13;3.45;;;;;;;38.00;25.19;99308.66;4983462;28;20778;-68
2022/06/30 10:34:24;;;;;;;6.60;3.47;;;;;;;38.00;25.40;99300.34;4972779;28;20190;-70
2022/06/30 10:37:01;;;;;;;4.18;3.75;;;;;;;37.71;25.39;99304.00;4975262;28;20188;-69
2022/06/30 10:39:39;;;;;;;4.13;3.63;;;;;;;37.82;25.55;99299.38;4976700;28;20655;-69
2022/06/30 10:42:06;;;;;;;3.78;3.45;;;;;;;37.90;25.68;99291.91;4976997;28;20246;-70
2022/06/30 10:44:33;;;;;;;5.38;3.83;;;;;;;37.93;24.82;99286.44;4976601;28;20266;-69
2022/06/30 10:47:07;;;;;;;7.75;3.80;;;;;;;37.97;24.85;99283.69;4976440;28;20616;-69
2022/06/30 10:49:35;;;;;;;6.13;4.00;;;;;;;38.02;25.69;99277.78;4977202;28;20253;-68
2022/06/30 10:52:21;;;;;;;3.72;3.38;;;;;;;38.07;25.43;99278.25;4977271;28;20645;-72
2022/06/30 10:54:48;;;;;;;4.20;3.05;;;;;;;38.06;24.32;99284.19;4975991;28;20199;-71
2022/06/30 10:57:16;;;;;;;5.15;3.53;;;;;;;38.12;24.80;99286.22;4976797;28;20246;-72
2022/06/30 10:59:43;;;;;;;4.47;3.75;;;;;;;38.08;24.39;99282.63;4976283;28;20205;-71
2022/06/30 11:02:26;;;;;;;6.75;3.78;;;;;;;37.92;25.44;99282.03;4976516;28;20269;-70
2022/06/30 11:05:25;;;;;;;4.47;4.22;;;;;;;37.63;25.74;99282.16;4976987;28;20191;-71
2022/06/30 11:07:53;;;;;;;5.65;4.05;;;;;;;37.34;26.26;99269.13;4977189;28;20188;-71
2022/06/30 11:10:21;;;;;;;9.15;3.50;;;;;;;37.00;26.88;99268.25;4975773;28;20655;-70
2022/06/30 11:13:06;;;;;;;3.90;3.58;;;;;;;37.24;26.54;99268.59;4977220;28;20223;-70
2022/06/30 11:16:14;;;;;;;3.70;3.40;;;;;;;36.85;25.90;99270.06;4976608;28;20290;-70
2022/06/30 11:18:41;;;;;;;6.05;3.65;;;;;;;36.58;26.82;99273.19;4975524;28;20661;-70
2022/06/30 11:21:08;;;;;;;4.68;3.78;;;;;;;36.62;27.01;99268.50;4976072;28;20262;-70
2022/06/30 11:23:41;;;;;;;3.72;3.38;;;;;;;36.71;25.57;99255.22;4975777;28;20729;-70
2022/06/30 11:28:54;;;;;;;3.53;3.08;;;;;;;36.54;26.73;99261.25;4975850;28;20186;-70
2022/06/30 11:31:30;;;;;;;4.30;3.03;;;;;;;36.46;27.13;99259.56;4975042;28;20769;-70
2022/06/30 11:34:00;;;;;;;3.05;2.95;;;;;;;36.29;26.19;99266.41;4975578;28;20242;-70
2022/06/30 11:36:27;;;;;;;6.18;3.30;;;;;;;36.41;26.89;99262.63;4975764;28;20195;-70
2022/06/30 11:38:57;;;;;;;3.53;3.22;;;;;;;36.65;26.44;99262.19;4975342;28;20191;-69
2022/06/30 11:44:10;;;;;;;7.88;3.55;;;;;;;36.26;27.07;99244.22;4976023;28;20226;-70
2022/06/30 11:46:48;;;;;;;3.83;3.22;;;;;;;36.08;26.45;99259.69;4975183;28;20195;-70
2022/06/30 11:49:15;;;;;;;6.05;3.22;;;;;;;36.12;25.78;99241.19;4974380;28;20195;-73
2022/06/30 11:51:42;;;;;;;3.30;3.08;;;;;;;36.35;25.15;99253.06;4975119;28;20223;-72
2022/06/30 11:54:12;;;;;;;4.97;3.35;;;;;;;36.22;25.38;99259.97;4974898;28;20290;-70
2022/06/30 11:56:50;;;;;;;3.60;2.95;;;;;;;36.31;25.51;99253.00;4975085;28;20251;-70
2022/06/30 11:59:17;;;;;;;3.83;3.30;;;;;;;36.22;25.27;99243.38;4975650;28;20270;-70
2022/06/30 12:01:59;;;;;;;4.13;2.90;;;;;;;36.43;24.73;99246.47;4974982;28;20758;-70